Hauptseite
METAR-TAF:

METAR-TAF

Flughäfen :

Flughafen Hamburg

Hamburg, Deutschland

Breite: 53-38N, Länge: 010-00E, Höhe: 16 m

Beobachtung

Neuester Wetterbericht von vor 21 Minuten, um 08:20 UTC
Wind 3 kt aus Ost/Nordost, variierte zwischen Nord und Südost
Temperatur 25°C
Luftfeuchtigkeit 47%
Luftdruck 1025 hPa
Sichtweite 10 km oder mehr
keine Wolken unter 1500 m und keine Kumulonimbus oder Gewitterwolken

METAR: EDDH 110820Z AUTO 07003KT 360V130 CAVOK 25/13 Q1025 NOSIG

Zeit: 10:41 (08:41 UTC)

Prognose

Neuester Wetterbericht von vor 3 Stunden und 41 Minuten, um 05:00 UTC
Gültige Prognose vom 11 um 06 UTC bis 12 um 12 UTC
Wind 6 kt aus Ost/Nordost
Sichtweite 10 km oder mehr
keine Wolken unter 1500 m und keine Kumulonimbus oder Gewitterwolken
Zeitweise
vom 11 um 22 UTC bis 12 um 05 UTC
Wind 3 kt aus unterschiedlichen Richtungen

TAF: EDDH 110500Z 1106/1212 06006KT CAVOK TEMPO 1122/1205 VRB03KT

Wetterbeobachtungen und Prognosen von mehr als 4000 Flughäfen (METAR und TAF Bericht).

Die verfügbaren Stationen werden durch gelbe und rote Markierungen auf der Karte dargestellt.

Führen Sie die Maus auf sie, um den Namen der Station zu sehen.

Darauf klicken, um die Beobachtung von Wetterbeobachtungen und Prognosen zu sehen.

Um die Karte zu ändern : klicken Sie auf den grünen Tasten mit einem schwarzen Kreuz Zum Vergrößern, auf den grünen Button mit einem Gedankenstrich zu verkleinern, oder auf die grünen Pfeile für benachbarte Karten.


METAR-TAF: